Hopedale, Ohio
Current Conditions -  °F | °C
As of 7:53 AM on Thursday 23 Oct 2014 (Local Time) from KHLG Reporting Station
Overcast Overcast  
Wind Chill:   Ceiling: 700
Heat Index:   Visibility: 7mi
Dew Point:   Wind: 6mph
Humidity: 90%   Direction: 330°NNW
Pressure: 30.16"   Gusts: NA
Location:  40.33°N, 80.9°W
Report Text: KHLG 231153Z 33005KT 7SM BKN007 BKN011 OVC018 07/06 A3016 RMK AO2 SLP219 T00720056 10072 20061 50006
Loading
Personal Weather Stations






























Interactive Weather Map
Tropical Storm Tracking
New forecast layout! Learn more

10-Day Weather Forecast

Advertisements
Track Severe Weather on mobile